Moyers, OK (74557)

7:18 AM CDT on July 29, 2015 (GMT -0500)
Antlers South Shady Pines | | Change Station
CLOSE
Current Station
Personal Weather Station
Location: Antlers, OK
Elevation: 538 ft
Nearby Weather Stations
Active Advisory: Heat Advisory

Elev 538 ft 34.20 °N, 95.62 °W | Updated 8 minutes ago

Clear
Clear
70.9 °F
Feels Like 70.9 °F
N
1.7
Wind Variable Wind from North

Today
High -- | Low -- °F
--% Chance of Precip.
Yesterday
High -- | Low -- °F
Precip. -- in
6:31 AM 8:26 PM
Waxing Gibbous, 95% visible
Pressure 30.03 in
Visibility 10.0 miles
Clouds Clear
Dew Point 71 °F
Humidity 99%
Rainfall 0.00 in
Snow Depth Not available.
UV 0 out of 12
Pollen 4.60 out of 12
Air Quality Not available.
Flu Activity Not available.
METAR KHHW 291155Z AUTO 00000KT 10SM CLR 25/21 A3003 RMK AO2 T02480207 10276 20244

More Conditions Fewer Conditions

Pressure 30.03 in
Visibility 10.0 miles
Clouds Clear
Dew Point 71 °F
Humidity 99%
Rainfall 0.00 in
Snow Depth Not available.
UV 0 out of 12
Pollen 4.60 out of 12
Air Quality Not available.
Flu Activity Not available.
METAR KHHW 291155Z AUTO 00000KT 10SM CLR 25/21 A3003 RMK AO2 T02480207 10276 20244

More Conditions Fewer Conditions

10-Day Weather Forecast

×

Almanac

Astronomy

Jul. 29, 2015 Rise Set
Actual Time
Civil Twilight
Nautical Twilight
Astronomical Twilight
Moon
Length of Visible Light
Length of Day
Tomorrow will be .
, % of the Moon is Illuminated

Today's Extremes

State Highs State Lows

Community

WunderPhotos

Upload Photos

1,842,084 photos uploaded!

WunderBlogs® & News

Nearby

Air Quality

  Air Quality AQ Index Pollutant
Not available.

Snow Depth

Station Depth Elevation

Earthquake Activity

City Distance Mag. Time & Date
Minimum magnitude displayed is 2.5.

Coastal Water Temperatures

Place Temperature

Stations

Nearby Weather Stations

Station Location Temp. Windchill Dew Point Humidity Wind Precip. Elev Updated Type
                   
Heat Advisory
Statement as of 2:54 AM CDT on July 29, 2015

... Heat advisory remains in effect from 11 am this morning to
   8 PM CDT this evening...

* a dangerous combination of heat and humidity will develop
again today. Heat index values in the 105 to 110 degree
range will be common.

* Impacts... the combination of heat and humidity will create a
situation in which heat related illnesses are possible.

Precautionary/preparedness actions...

* drink plenty of fluids... stay in an air-conditioned room...
stay out of the sun... and check up on relatives and neighbors.
Never leave anyone in a closed... parked vehicle... temperatures
inside can reach over 150 degrees quickly... resulting in
death.